Time;durP1;ratioP1;P1;durP2;ratioP2;P2;SDS_P1;SDS_P2;PMS_P1;PMS_P2;Temp;Humidity;BMP_temperature;BMP_pressure;BME280_temperature;BME280_humidity;BME280_pressure;Samples;Min_cycle;Max_cycle;Signal;HPM_P1;HPM_P2
2022/12/23 00:01:12;;;;;;;17.73;4.15;;;9.70;99.90;;;;;;5006051;28;20058;-81
2022/12/23 00:03:38;;;;;;;15.68;4.10;;;9.70;99.90;;;;;;4998533;28;20034;-81
2022/12/23 00:06:11;;;;;;;7.75;2.78;;;9.70;99.90;;;;;;4991084;28;20140;-82
2022/12/23 00:08:36;;;;;;;11.60;3.25;;;9.70;99.90;;;;;;5004148;28;20378;-81
2022/12/23 00:11:03;;;;;;;20.23;4.70;;;9.70;99.90;;;;;;5002706;28;20033;-82
2022/12/23 00:16:13;;;;;;;12.77;3.25;;;9.70;99.90;;;;;;5005401;28;20092;-82
2022/12/23 00:18:40;;;;;;;16.02;4.13;;;9.80;99.90;;;;;;4981928;28;20026;-81
2022/12/23 00:21:10;;;;;;;18.95;4.50;;;9.70;99.90;;;;;;4985367;28;20040;-81
2022/12/23 00:23:37;;;;;;;8.60;2.80;;;9.70;99.90;;;;;;4986701;28;20047;-82
2022/12/23 00:26:03;;;;;;;10.63;2.95;;;9.80;99.90;;;;;;4997636;28;20458;-82
2022/12/23 00:28:28;;;;;;;15.38;4.75;;;9.70;99.90;;;;;;4988015;28;20065;-81
2022/12/23 00:31:02;;;;;;;12.90;2.92;;;9.70;99.90;;;;;;5006302;28;20532;-81
2022/12/23 00:33:32;;;;;;;14.50;4.00;;;9.70;99.90;;;;;;4964424;28;20030;-81
2022/12/23 00:35:58;;;;;;;10.40;4.28;;;9.70;99.90;;;;;;4989349;28;20042;-81
2022/12/23 00:43:58;;;;;;;8.98;2.53;;;9.70;99.90;;;;;;5002877;28;20116;-81
2022/12/23 00:46:23;;;;;;;8.88;3.30;;;9.80;99.90;;;;;;4990571;28;20029;-81
2022/12/23 00:51:33;;;;;;;8.88;3.03;;;9.80;99.90;;;;;;4990123;28;20406;-81
2022/12/23 00:53:59;;;;;;;10.63;3.75;;;9.80;99.90;;;;;;4988508;28;20030;-82
2022/12/23 00:56:25;;;;;;;11.02;2.25;;;9.80;99.90;;;;;;4991776;28;20028;-82
2022/12/23 00:58:50;;;;;;;13.00;3.20;;;9.80;99.90;;;;;;5001519;28;20605;-81
2022/12/23 01:06:44;;;;;;;11.20;2.65;;;9.80;99.90;;;;;;4987296;28;20393;-82
2022/12/23 01:09:11;;;;;;;13.25;3.45;;;9.70;99.90;;;;;;4991932;28;20033;-82
2022/12/23 01:11:37;;;;;;;5.85;2.22;;;9.80;99.90;;;;;;4985044;28;20533;-82
2022/12/23 01:14:03;;;;;;;9.13;2.58;;;9.80;99.90;;;;;;4979724;28;20026;-82
2022/12/23 01:16:28;;;;;;;11.20;3.80;;;9.80;99.90;;;;;;5006178;28;20022;-82
2022/12/23 01:18:54;;;;;;;13.95;4.72;;;9.70;99.90;;;;;;5006579;28;20048;-82
2022/12/23 01:21:19;;;;;;;10.13;3.38;;;9.70;99.90;;;;;;5004987;28;20049;-83
2022/12/23 01:23:45;;;;;;;14.13;4.70;;;9.70;99.90;;;;;;5003502;28;20386;-82
2022/12/23 01:26:10;;;;;;;11.73;2.63;;;9.80;99.90;;;;;;4984897;28;20029;-83
2022/12/23 01:28:36;;;;;;;14.15;3.58;;;9.70;99.90;;;;;;4989931;28;20034;-83
2022/12/23 01:31:02;;;;;;;8.63;3.22;;;9.80;99.90;;;;;;5000509;28;20537;-83
2022/12/23 01:33:31;;;;;;;4.72;2.70;;;9.70;99.90;;;;;;5006103;28;20080;-83
2022/12/23 01:36:03;;;;;;;6.80;2.83;;;9.70;99.90;;;;;;4971039;28;20040;-82
2022/12/23 01:38:29;;;;;;;6.82;2.17;;;9.70;99.90;;;;;;5001987;28;20034;-83
2022/12/23 01:40:54;;;;;;;9.80;3.08;;;9.70;99.90;;;;;;4982935;28;20394;-82
2022/12/23 01:43:20;;;;;;;7.82;3.55;;;9.80;99.90;;;;;;4972747;28;20093;-82
2022/12/23 01:45:45;;;;;;;6.63;2.85;;;9.70;99.90;;;;;;5002655;28;20145;-82
2022/12/23 01:48:20;;;;;;;9.15;3.40;;;9.70;99.90;;;;;;4979921;28;20112;-82
2022/12/23 01:51:10;;;;;;;8.45;3.75;;;9.70;99.90;;;;;;5001612;28;20045;-82
2022/12/23 01:53:42;;;;;;;5.72;2.83;;;9.70;99.90;;;;;;4984458;28;20034;-83
2022/12/23 01:56:30;;;;;;;5.90;2.40;;;9.70;99.90;;;;;;4985581;28;20436;-82
2022/12/23 01:58:58;;;;;;;10.35;4.28;;;9.70;99.90;;;;;;5002722;28;20145;-82
2022/12/23 02:04:09;;;;;;;5.32;3.15;;;9.70;99.90;;;;;;5000266;28;20056;-82
2022/12/23 02:09:25;;;;;;;7.20;3.40;;;9.70;99.90;;;;;;5001658;28;20033;-82
2022/12/23 02:11:53;;;;;;;10.30;4.68;;;9.70;99.90;;;;;;4989678;28;20088;-82
2022/12/23 02:17:42;;;;;;;13.88;5.65;;;9.70;99.90;;;;;;4956389;28;20586;-82
2022/12/23 02:20:44;;;;;;;7.85;3.50;;;9.70;99.90;;;;;;5011652;28;20045;-83
2022/12/23 02:23:33;;;;;;;14.25;6.65;;;9.80;99.90;;;;;;4997295;28;20048;-82
2022/12/23 02:26:17;;;;;;;9.57;4.07;;;9.70;99.90;;;;;;5018777;28;20049;-82
2022/12/23 02:29:10;;;;;;;15.48;6.63;;;9.70;99.90;;;;;;5011560;28;20042;-82
2022/12/23 02:31:59;;;;;;;5.75;3.53;;;9.80;99.90;;;;;;5002336;28;20497;-82
2022/12/23 02:34:34;;;;;;;15.75;8.43;;;9.70;99.90;;;;;;4988181;28;20058;-82
2022/12/23 02:37:18;;;;;;;7.68;4.07;;;9.70;99.90;;;;;;5000122;28;20041;-82
2022/12/23 02:39:54;;;;;;;12.70;5.38;;;9.70;99.90;;;;;;5001188;28;20033;-82
2022/12/23 02:42:28;;;;;;;10.63;4.97;;;9.70;99.90;;;;;;5004841;28;20041;-82
2022/12/23 02:45:13;;;;;;;18.10;6.95;;;9.70;99.90;;;;;;5004594;28;20117;-82
2022/12/23 02:47:43;;;;;;;11.20;7.32;;;9.70;99.90;;;;;;4989021;28;20486;-82
2022/12/23 02:50:15;;;;;;;15.57;7.72;;;9.70;99.90;;;;;;4995591;28;20034;-82
2022/12/23 02:52:41;;;;;;;10.90;6.07;;;9.70;99.90;;;;;;4975040;28;20038;-83
2022/12/23 02:55:12;;;;;;;5.28;3.90;;;9.70;99.90;;;;;;5002518;28;20042;-82
2022/12/23 02:57:39;;;;;;;15.23;7.90;;;9.80;99.90;;;;;;4983833;28;20041;-83
2022/12/23 03:00:06;;;;;;;17.08;8.05;;;9.70;99.90;;;;;;5015686;28;20041;-82
2022/12/23 03:02:36;;;;;;;8.13;3.72;;;9.70;99.90;;;;;;5007885;28;20445;-83
2022/12/23 03:05:02;;;;;;;5.88;3.42;;;9.70;99.90;;;;;;4981682;28;20030;-83
2022/12/23 03:07:33;;;;;;;12.35;8.02;;;9.70;99.90;;;;;;4989038;28;20042;-83
2022/12/23 03:10:39;;;;;;;10.10;5.60;;;9.70;99.90;;;;;;4973362;28;20388;-83
2022/12/23 03:13:18;;;;;;;11.32;5.97;;;9.80;99.90;;;;;;4992147;28;20574;-83
2022/12/23 03:16:05;;;;;;;6.75;3.55;;;9.70;99.90;;;;;;4984854;28;20680;-82
2022/12/23 03:19:03;;;;;;;8.55;4.93;;;9.70;99.90;;;;;;5008473;28;20030;-82
2022/12/23 03:21:30;;;;;;;11.60;6.35;;;9.70;99.90;;;;;;4949088;28;20069;-82
2022/12/23 03:24:05;;;;;;;14.50;8.43;;;9.70;99.90;;;;;;4998442;28;20498;-83
2022/12/23 03:26:38;;;;;;;7.63;5.65;;;9.70;99.90;;;;;;4969313;28;20042;-82
2022/12/23 03:29:13;;;;;;;12.15;7.00;;;9.70;99.90;;;;;;4965076;28;20041;-82
2022/12/23 03:31:39;;;;;;;7.05;3.38;;;9.70;99.90;;;;;;4990493;28;20073;-82
2022/12/23 03:34:08;;;;;;;11.02;6.78;;;9.70;99.90;;;;;;4984338;28;20524;-82
2022/12/23 03:36:39;;;;;;;9.60;5.43;;;9.70;99.90;;;;;;5001929;28;20076;-83
2022/12/23 03:39:05;;;;;;;18.65;8.27;;;9.70;99.90;;;;;;4987488;28;20029;-82
2022/12/23 03:41:35;;;;;;;10.85;6.40;;;9.80;99.90;;;;;;4982949;28;20029;-81
2022/12/23 03:44:07;;;;;;;14.00;7.72;;;9.70;99.90;;;;;;4989182;28;20054;-81
2022/12/23 03:46:44;;;;;;;11.55;5.82;;;9.70;99.90;;;;;;4974190;28;20107;-81
2022/12/23 03:49:18;;;;;;;13.88;9.32;;;9.70;99.90;;;;;;4967296;28;20030;-80
2022/12/23 03:51:56;;;;;;;11.75;6.93;;;9.70;99.90;;;;;;4987202;28;20058;-81
2022/12/23 03:54:25;;;;;;;9.18;5.28;;;9.70;99.90;;;;;;4970020;28;20041;-81
2022/12/23 03:56:55;;;;;;;14.35;7.65;;;9.70;99.90;;;;;;4979973;28;20030;-81
2022/12/23 03:59:26;;;;;;;18.25;9.60;;;9.70;99.90;;;;;;5008023;28;20037;-81
2022/12/23 04:02:12;;;;;;;11.50;7.45;;;9.70;99.90;;;;;;4989015;28;20363;-81
2022/12/23 04:04:54;;;;;;;16.20;9.52;;;9.70;99.90;;;;;;5006932;28;20655;-80
2022/12/23 04:07:35;;;;;;;8.13;4.80;;;9.70;99.90;;;;;;5004599;28;20030;-81
2022/12/23 04:10:01;;;;;;;15.02;8.80;;;9.70;99.90;;;;;;4973580;28;20030;-82
2022/12/23 04:12:27;;;;;;;5.72;3.72;;;9.80;99.90;;;;;;4991601;28;20757;-81
2022/12/23 04:14:52;;;;;;;9.23;4.97;;;9.80;99.90;;;;;;5007415;28;20108;-81
2022/12/23 04:17:18;;;;;;;13.68;8.00;;;9.70;99.90;;;;;;4991079;28;20041;-81
2022/12/23 04:19:46;;;;;;;14.32;7.28;;;9.70;99.90;;;;;;4991086;28;20032;-80
2022/12/23 04:22:12;;;;;;;7.72;3.38;;;9.70;99.90;;;;;;4975761;28;20033;-80
2022/12/23 04:24:38;;;;;;;15.23;7.03;;;9.70;99.90;;;;;;4986049;28;20592;-81
2022/12/23 04:27:04;;;;;;;16.50;9.65;;;9.70;99.90;;;;;;4982591;28;20033;-81
2022/12/23 04:29:30;;;;;;;8.15;4.93;;;9.70;99.90;;;;;;4969665;28;20128;-80
2022/12/23 04:31:55;;;;;;;11.32;5.82;;;9.70;99.90;;;;;;5006168;28;20109;-80
2022/12/23 04:34:21;;;;;;;15.98;8.63;;;9.80;99.90;;;;;;4980326;28;20061;-81
2022/12/23 04:36:46;;;;;;;9.00;4.55;;;9.70;99.90;;;;;;4971627;28;20056;-80
2022/12/23 04:39:12;;;;;;;10.90;5.68;;;9.70;99.90;;;;;;4973870;28;20041;-80
2022/12/23 04:41:38;;;;;;;8.27;4.03;;;9.70;99.90;;;;;;4985902;28;20037;-80
2022/12/23 04:44:03;;;;;;;7.97;5.45;;;9.70;99.90;;;;;;5004120;28;20113;-80
2022/12/23 04:46:29;;;;;;;5.88;2.63;;;9.70;99.90;;;;;;4971085;28;20125;-80
2022/12/23 04:48:55;;;;;;;4.97;3.80;;;9.70;99.90;;;;;;5005392;28;20044;-81
2022/12/23 04:51:20;;;;;;;11.88;6.05;;;9.70;99.90;;;;;;4991125;28;20034;-80
2022/12/23 04:53:46;;;;;;;9.85;6.65;;;9.70;99.90;;;;;;5003041;28;20438;-81
2022/12/23 04:56:12;;;;;;;9.45;6.35;;;9.70;99.90;;;;;;4997718;28;20084;-80
2022/12/23 04:58:37;;;;;;;13.73;6.15;;;9.70;99.90;;;;;;4986363;28;20394;-80
2022/12/23 05:01:05;;;;;;;10.27;3.80;;;9.70;99.90;;;;;;4990280;28;20042;-81
2022/12/23 05:03:31;;;;;;;7.95;4.82;;;9.70;99.90;;;;;;4988830;28;20033;-81
2022/12/23 05:05:56;;;;;;;11.65;7.13;;;9.70;99.90;;;;;;4980512;28;20075;-82
2022/12/23 05:08:22;;;;;;;8.75;5.47;;;9.70;99.90;;;;;;5003156;28;20026;-81
2022/12/23 05:10:47;;;;;;;13.63;6.65;;;9.70;99.90;;;;;;4989992;28;20041;-82
2022/12/23 05:13:13;;;;;;;9.57;6.03;;;9.70;99.90;;;;;;4974243;28;20045;-81
2022/12/23 05:15:38;;;;;;;8.93;5.75;;;9.70;99.90;;;;;;4984819;28;20107;-81
2022/12/23 05:18:04;;;;;;;13.70;7.22;;;9.70;99.90;;;;;;4993341;28;20457;-81
2022/12/23 05:20:29;;;;;;;7.25;4.43;;;9.70;99.90;;;;;;4987587;28;20390;-81
2022/12/23 05:22:55;;;;;;;13.52;6.50;;;9.70;99.90;;;;;;4986022;28;20065;-81
2022/12/23 05:25:20;;;;;;;8.77;3.80;;;9.70;99.90;;;;;;4975352;28;20053;-81
2022/12/23 05:27:46;;;;;;;11.52;6.30;;;9.70;99.90;;;;;;4983961;28;20446;-81
2022/12/23 05:30:12;;;;;;;6.80;3.35;;;9.70;99.90;;;;;;5004392;28;20030;-81
2022/12/23 05:32:38;;;;;;;6.13;3.65;;;9.70;99.90;;;;;;4988827;28;20367;-81
2022/12/23 05:35:04;;;;;;;5.60;2.67;;;9.70;99.90;;;;;;5000571;28;20108;-82
2022/12/23 05:37:30;;;;;;;8.52;5.03;;;9.60;99.90;;;;;;5001331;28;20093;-81
2022/12/23 05:39:55;;;;;;;7.30;4.38;;;9.70;99.90;;;;;;4987625;28;20436;-80
2022/12/23 05:42:21;;;;;;;5.15;2.63;;;9.70;99.90;;;;;;5005491;28;20555;-81
2022/12/23 05:44:46;;;;;;;8.82;3.80;;;9.60;99.90;;;;;;4979716;28;20088;-81
2022/12/23 05:47:12;;;;;;;9.35;5.78;;;9.60;99.90;;;;;;4985698;28;20026;-81
2022/12/23 05:49:37;;;;;;;6.60;2.95;;;9.70;99.90;;;;;;4970380;28;20085;-82
2022/12/23 05:52:03;;;;;;;12.45;7.72;;;9.70;99.90;;;;;;4985639;28;20050;-81
2022/12/23 05:54:29;;;;;;;7.38;4.38;;;9.70;99.90;;;;;;4973847;28;20046;-81
2022/12/23 05:56:54;;;;;;;14.20;8.30;;;9.60;99.90;;;;;;4984451;28;20070;-81
2022/12/23 05:59:20;;;;;;;8.52;4.50;;;9.60;99.90;;;;;;4989010;28;20026;-82
2022/12/23 06:01:45;;;;;;;9.02;5.65;;;9.60;99.90;;;;;;4979572;28;20079;-81
2022/12/23 06:04:11;;;;;;;13.73;7.10;;;9.70;99.90;;;;;;4982961;28;20049;-81
2022/12/23 06:06:36;;;;;;;8.45;4.85;;;9.70;99.90;;;;;;4999301;28;20084;-81
2022/12/23 06:09:02;;;;;;;13.88;6.47;;;9.60;99.90;;;;;;4974230;28;20464;-81
2022/12/23 06:11:27;;;;;;;12.13;6.07;;;9.60;99.90;;;;;;4984044;28;21281;-81
2022/12/23 06:13:53;;;;;;;11.10;6.60;;;9.60;99.90;;;;;;4988850;28;20045;-82
2022/12/23 06:16:18;;;;;;;10.38;4.88;;;9.60;99.90;;;;;;4989418;28;20927;-82
2022/12/23 06:18:44;;;;;;;15.20;8.02;;;9.60;99.90;;;;;;4985237;28;20035;-81
2022/12/23 06:21:09;;;;;;;16.55;11.07;;;9.60;99.90;;;;;;4966519;28;20207;-82
2022/12/23 06:23:35;;;;;;;15.13;8.60;;;9.70;99.90;;;;;;4982110;28;20688;-80
2022/12/23 06:26:01;;;;;;;10.80;5.75;;;9.60;99.90;;;;;;4977975;28;20037;-82
2022/12/23 06:28:28;;;;;;;14.32;9.00;;;9.60;99.90;;;;;;4974686;28;20131;-81
2022/12/23 06:30:54;;;;;;;15.00;7.68;;;9.60;99.90;;;;;;4994999;28;20540;-82
2022/12/23 06:33:20;;;;;;;10.75;5.78;;;9.60;99.90;;;;;;4987374;28;20532;-81
2022/12/23 06:35:46;;;;;;;6.63;3.90;;;9.70;99.90;;;;;;4978000;28;20034;-81
2022/12/23 06:38:11;;;;;;;15.75;6.22;;;9.60;99.90;;;;;;4988592;28;20029;-81
2022/12/23 06:40:37;;;;;;;9.40;5.00;;;9.60;99.90;;;;;;4999977;28;20034;-82
2022/12/23 06:43:02;;;;;;;6.70;3.55;;;9.60;99.90;;;;;;4980082;28;20032;-81
2022/12/23 06:45:28;;;;;;;16.45;8.15;;;9.60;99.90;;;;;;4986008;28;20589;-81
2022/12/23 06:47:55;;;;;;;10.52;5.93;;;9.60;99.90;;;;;;4976315;28;20790;-81
2022/12/23 06:50:20;;;;;;;7.03;4.88;;;9.60;99.90;;;;;;4986539;28;20554;-82
2022/12/23 06:52:47;;;;;;;15.73;8.68;;;9.60;99.90;;;;;;4998663;28;20038;-81
2022/12/23 06:55:13;;;;;;;18.65;6.90;;;9.60;99.90;;;;;;5005937;28;20493;-82
2022/12/23 06:57:39;;;;;;;15.93;8.70;;;9.60;99.90;;;;;;5003366;28;20057;-81
2022/12/23 07:00:05;;;;;;;10.30;4.65;;;9.60;99.90;;;;;;4995281;28;20156;-81
2022/12/23 07:02:30;;;;;;;16.75;6.50;;;9.50;99.90;;;;;;4983191;28;20512;-81
2022/12/23 07:04:56;;;;;;;12.30;6.32;;;9.60;99.90;;;;;;4984219;28;20037;-82
2022/12/23 07:07:21;;;;;;;7.15;3.65;;;9.60;99.90;;;;;;4986744;28;20454;-81
2022/12/23 07:09:47;;;;;;;11.18;5.68;;;9.60;99.90;;;;;;4984453;28;20400;-81
2022/12/23 07:12:13;;;;;;;11.82;6.75;;;9.60;99.90;;;;;;4974810;28;20023;-82
2022/12/23 07:14:38;;;;;;;15.88;7.97;;;9.60;99.90;;;;;;5003238;28;20030;-82
2022/12/23 07:17:04;;;;;;;14.85;7.93;;;9.60;99.90;;;;;;4980605;28;20122;-82
2022/12/23 07:19:29;;;;;;;16.95;6.88;;;9.60;99.90;;;;;;4984968;28;20064;-82
2022/12/23 07:21:55;;;;;;;17.05;7.40;;;9.50;99.90;;;;;;4982230;28;20479;-81
2022/12/23 07:24:20;;;;;;;8.15;4.93;;;9.60;99.90;;;;;;4999882;28;20443;-81
2022/12/23 07:26:46;;;;;;;10.88;5.22;;;9.60;99.90;;;;;;4987579;28;20504;-82
2022/12/23 07:29:11;;;;;;;17.50;8.13;;;9.50;99.90;;;;;;4988839;28;20049;-81
2022/12/23 07:31:37;;;;;;;15.98;6.35;;;9.50;99.90;;;;;;4974681;28;20045;-82
2022/12/23 07:34:03;;;;;;;16.35;6.28;;;9.50;99.90;;;;;;4982843;28;20052;-82
2022/12/23 07:36:28;;;;;;;9.52;5.40;;;9.50;99.90;;;;;;4983909;28;20030;-82
2022/12/23 07:38:54;;;;;;;10.57;5.93;;;9.50;99.90;;;;;;4988411;28;20137;-82
2022/12/23 07:41:19;;;;;;;15.75;8.40;;;9.50;99.90;;;;;;5004710;28;20397;-81
2022/12/23 07:43:45;;;;;;;17.27;8.95;;;9.50;99.90;;;;;;5002154;28;20092;-82
2022/12/23 07:46:11;;;;;;;12.20;6.00;;;9.50;99.90;;;;;;4976022;28;20056;-82
2022/12/23 07:48:38;;;;;;;13.63;6.55;;;9.50;99.90;;;;;;4991056;28;20038;-81
2022/12/23 07:51:04;;;;;;;13.45;7.40;;;9.60;99.90;;;;;;4978760;28;20046;-81
2022/12/23 07:53:30;;;;;;;14.55;7.97;;;9.50;99.90;;;;;;4989372;28;20091;-81
2022/12/23 07:55:55;;;;;;;15.32;6.63;;;9.50;99.90;;;;;;5004032;28;20481;-81
2022/12/23 07:58:21;;;;;;;18.25;7.88;;;9.50;99.90;;;;;;5007935;28;20494;-81
2022/12/23 08:00:46;;;;;;;16.45;9.43;;;9.50;99.90;;;;;;5003291;28;20042;-81
2022/12/23 08:03:14;;;;;;;23.55;9.90;;;9.50;99.90;;;;;;4983835;28;20045;-81
2022/12/23 08:05:40;;;;;;;16.42;8.48;;;9.50;99.90;;;;;;4977625;28;20104;-81
2022/12/23 08:08:05;;;;;;;12.52;7.45;;;9.60;99.90;;;;;;4993209;28;20038;-81
2022/12/23 08:10:31;;;;;;;21.73;9.25;;;9.50;99.90;;;;;;4986581;28;20054;-81
2022/12/23 08:12:59;;;;;;;20.38;9.63;;;9.50;99.90;;;;;;5004970;28;20813;-81
2022/12/23 08:15:24;;;;;;;13.95;6.75;;;9.50;99.90;;;;;;4990967;28;20605;-82
2022/12/23 08:17:50;;;;;;;16.65;7.75;;;9.50;99.90;;;;;;4985749;28;20030;-82
2022/12/23 08:20:16;;;;;;;14.15;8.30;;;9.50;99.90;;;;;;5005028;28;20038;-81
2022/12/23 08:22:41;;;;;;;16.08;8.35;;;9.50;99.90;;;;;;4980948;28;20042;-80
2022/12/23 08:25:07;;;;;;;17.58;8.32;;;9.50;99.90;;;;;;4991164;28;20080;-81
2022/12/23 08:27:33;;;;;;;18.75;8.70;;;9.50;99.90;;;;;;4977049;28;20446;-82
2022/12/23 08:29:58;;;;;;;16.25;8.15;;;9.60;99.90;;;;;;4989744;28;20038;-82
2022/12/23 08:32:27;;;;;;;11.15;5.45;;;9.60;99.90;;;;;;4990873;28;20034;-81
2022/12/23 08:34:55;;;;;;;17.00;8.13;;;9.50;99.90;;;;;;5002384;28;20521;-82
2022/12/23 08:37:20;;;;;;;14.82;8.73;;;9.50;99.90;;;;;;5005883;28;20084;-82
2022/12/23 08:39:46;;;;;;;14.25;7.15;;;9.50;99.90;;;;;;4978335;28;20029;-82
2022/12/23 08:42:12;;;;;;;16.80;7.38;;;9.50;99.90;;;;;;4991455;28;20057;-82
2022/12/23 08:44:37;;;;;;;9.70;4.65;;;9.50;99.90;;;;;;4971226;28;20038;-82
2022/12/23 08:47:03;;;;;;;15.30;7.75;;;9.60;99.90;;;;;;4990574;28;20109;-82
2022/12/23 08:49:28;;;;;;;15.80;7.10;;;9.50;99.90;;;;;;4989856;28;20030;-82
2022/12/23 08:51:54;;;;;;;15.48;7.70;;;9.60;99.90;;;;;;4973707;28;20025;-81
2022/12/23 08:54:19;;;;;;;11.93;7.43;;;9.60;99.90;;;;;;4983844;28;20053;-82
2022/12/23 08:56:45;;;;;;;12.32;7.22;;;9.60;99.90;;;;;;4977074;28;20030;-82
2022/12/23 08:59:14;;;;;;;13.63;7.57;;;9.60;99.90;;;;;;4976687;28;20026;-82
2022/12/23 09:01:39;;;;;;;12.60;7.45;;;9.50;99.90;;;;;;4990912;28;20049;-82
2022/12/23 09:04:05;;;;;;;18.77;8.15;;;9.60;99.90;;;;;;5004007;28;20133;-82
2022/12/23 09:06:36;;;;;;;15.32;9.52;;;9.60;99.90;;;;;;4965114;28;20042;-82
2022/12/23 09:09:02;;;;;;;14.90;7.70;;;9.60;99.90;;;;;;4985382;28;20490;-82
2022/12/23 09:11:28;;;;;;;16.08;9.82;;;9.70;99.90;;;;;;5004044;28;20405;-82
2022/12/23 09:13:54;;;;;;;15.38;9.88;;;9.70;99.90;;;;;;4973899;28;20042;-81
2022/12/23 09:16:20;;;;;;;24.25;10.07;;;9.70;99.90;;;;;;4990552;28;20038;-82
2022/12/23 09:18:46;;;;;;;14.15;7.78;;;9.70;99.90;;;;;;4979477;28;20030;-82
2022/12/23 09:21:13;;;;;;;21.02;8.73;;;9.60;99.90;;;;;;4975838;28;20030;-81
2022/12/23 09:23:39;;;;;;;15.68;9.18;;;9.70;99.90;;;;;;4986159;28;20608;-81
2022/12/23 09:26:05;;;;;;;15.23;7.70;;;9.70;99.90;;;;;;4977313;28;20094;-81
2022/12/23 09:28:31;;;;;;;17.85;9.27;;;9.70;99.90;;;;;;4969454;28;20054;-82
2022/12/23 09:30:56;;;;;;;16.13;8.48;;;9.70;99.90;;;;;;4985477;28;20056;-81
2022/12/23 09:33:22;;;;;;;20.65;9.27;;;9.70;99.90;;;;;;5003166;28;20030;-81
2022/12/23 09:35:48;;;;;;;20.50;9.32;;;9.70;99.90;;;;;;4984924;28;20504;-82
2022/12/23 09:38:13;;;;;;;19.52;10.02;;;9.80;99.90;;;;;;4999608;28;20032;-82
2022/12/23 09:40:39;;;;;;;19.92;9.35;;;9.80;99.90;;;;;;5000889;28;20030;-81
2022/12/23 09:43:31;;;;;;;22.90;10.05;;;9.80;99.90;;;;;;4984101;28;20526;-80
2022/12/23 09:46:20;;;;;;;16.10;9.70;;;9.80;99.90;;;;;;4988937;28;20057;-80
2022/12/23 09:49:08;;;;;;;20.90;9.90;;;9.80;99.90;;;;;;4997592;28;20030;-80
2022/12/23 09:51:34;;;;;;;22.23;9.60;;;9.80;99.90;;;;;;4982664;28;20037;-81
2022/12/23 09:54:10;;;;;;;17.40;9.27;;;9.80;99.90;;;;;;4976479;28;20026;-81
2022/12/23 09:56:46;;;;;;;17.00;9.48;;;9.80;99.90;;;;;;5004550;28;20113;-81
2022/12/23 09:59:32;;;;;;;13.75;5.57;;;9.90;99.90;;;;;;4995123;28;20092;-81
2022/12/23 10:02:24;;;;;;;17.02;7.72;;;9.90;99.90;;;;;;5002894;28;20054;-81
2022/12/23 10:05:21;;;;;;;25.95;10.80;;;9.90;99.90;;;;;;4982459;28;20124;-81
2022/12/23 10:07:54;;;;;;;20.30;10.68;;;9.90;99.90;;;;;;4999501;28;20038;-82
2022/12/23 10:10:26;;;;;;;16.60;9.70;;;9.90;99.90;;;;;;4986293;28;20061;-83
2022/12/23 10:12:51;;;;;;;20.77;10.93;;;9.90;99.90;;;;;;4984977;28;20041;-83
2022/12/23 10:15:24;;;;;;;15.73;10.07;;;9.90;99.90;;;;;;4979524;28;20030;-82
2022/12/23 10:17:52;;;;;;;19.23;11.35;;;9.90;99.90;;;;;;4975423;28;20029;-83
2022/12/23 10:20:31;;;;;;;17.92;10.05;;;10.00;99.90;;;;;;4987394;28;20030;-83
2022/12/23 10:22:56;;;;;;;26.92;11.10;;;10.00;99.90;;;;;;4966305;28;20112;-83
2022/12/23 10:25:34;;;;;;;21.05;10.93;;;10.00;99.90;;;;;;4984242;28;20045;-83
2022/12/23 10:28:00;;;;;;;17.83;10.20;;;10.00;99.90;;;;;;4997600;28;20061;-83
2022/12/23 10:30:27;;;;;;;18.98;10.65;;;10.00;99.90;;;;;;4988609;28;20616;-82
2022/12/23 10:33:02;;;;;;;23.98;11.90;;;10.00;99.90;;;;;;4977327;28;20029;-83
2022/12/23 10:35:41;;;;;;;17.90;10.17;;;10.10;99.90;;;;;;4985524;28;20033;-83
2022/12/23 10:38:17;;;;;;;13.82;8.43;;;10.10;99.90;;;;;;4996616;28;20765;-82
2022/12/23 10:40:53;;;;;;;;;;;10.10;99.90;;;;;;5004553;28;20410;-83
2022/12/23 10:43:25;;;;;;;18.75;10.30;;;10.10;99.90;;;;;;4988691;28;19924;-83
2022/12/23 10:46:17;;;;;;;15.88;9.52;;;10.10;99.90;;;;;;5000396;28;20064;-82
2022/12/23 10:49:10;;;;;;;17.15;9.77;;;10.20;99.90;;;;;;5013278;28;20035;-81
2022/12/23 10:51:40;;;;;;;15.23;10.45;;;10.20;99.90;;;;;;5006283;28;20093;-81
2022/12/23 10:54:10;;;;;;;13.50;9.20;;;10.20;99.90;;;;;;4984063;28;20084;-81
2022/12/23 10:56:36;;;;;;;17.10;9.93;;;10.20;99.90;;;;;;4987293;28;20078;-79
2022/12/23 10:59:01;;;;;;;15.00;9.27;;;10.20;99.90;;;;;;4970637;28;20493;-81
2022/12/23 11:01:29;;;;;;;17.60;10.25;;;10.20;99.90;;;;;;4973008;28;20052;-81
2022/12/23 11:04:31;;;;;;;22.23;9.23;;;10.30;99.90;;;;;;4987931;28;20502;-81
2022/12/23 11:06:57;;;;;;;17.23;10.05;;;10.30;99.90;;;;;;4993338;28;20109;-81
2022/12/23 11:09:23;;;;;;;14.98;9.48;;;10.30;99.90;;;;;;5005060;28;20038;-81
2022/12/23 11:11:59;;;;;;;19.35;11.80;;;10.30;99.90;;;;;;4988824;28;20037;-81
2022/12/23 11:14:31;;;;;;;15.98;9.77;;;10.20;99.90;;;;;;4992606;28;20031;-81
2022/12/23 11:16:56;;;;;;;16.02;9.68;;;10.20;99.90;;;;;;4986597;28;20052;-81
2022/12/23 11:19:23;;;;;;;18.00;10.30;;;10.20;99.90;;;;;;4971546;28;20035;-83
2022/12/23 11:21:54;;;;;;;19.40;11.38;;;10.30;99.90;;;;;;4980630;28;20033;-82
2022/12/23 11:24:21;;;;;;;17.05;11.35;;;10.30;99.90;;;;;;4980853;28;20217;-82
2022/12/23 11:26:57;;;;;;;17.45;11.27;;;10.30;99.90;;;;;;4974916;28;20049;-82
2022/12/23 11:29:32;;;;;;;16.30;10.30;;;10.40;99.90;;;;;;5005626;28;20208;-82
2022/12/23 11:31:57;;;;;;;16.27;11.55;;;10.40;99.90;;;;;;5008112;28;20038;-82
2022/12/23 11:34:24;;;;;;;17.98;10.82;;;10.40;99.90;;;;;;4990355;28;20030;-82
2022/12/23 11:36:59;;;;;;;24.42;11.65;;;10.40;99.90;;;;;;5004373;28;20037;-81
2022/12/23 11:39:29;;;;;;;22.60;11.10;;;10.40;99.90;;;;;;4988295;28;20038;-81
2022/12/23 11:42:25;;;;;;;16.98;10.85;;;10.40;99.90;;;;;;4995877;28;20037;-83
2022/12/23 11:44:51;;;;;;;18.85;11.95;;;10.40;99.90;;;;;;4989125;28;20061;-82
2022/12/23 11:47:22;;;;;;;18.27;11.05;;;10.50;99.90;;;;;;4991663;28;20909;-82
2022/12/23 11:49:52;;;;;;;16.20;11.23;;;10.50;99.90;;;;;;5008114;28;20385;-82
2022/12/23 11:52:25;;;;;;;13.55;9.00;;;10.50;99.90;;;;;;4982525;28;20110;-82
2022/12/23 11:54:53;;;;;;;18.80;10.27;;;10.40;99.90;;;;;;5006986;28;20088;-82
2022/12/23 11:57:26;;;;;;;17.33;8.50;;;10.40;99.90;;;;;;4981231;28;20487;-83
2022/12/23 11:59:56;;;;;;;15.20;7.78;;;10.40;99.90;;;;;;5005100;28;20460;-81
2022/12/23 12:02:39;;;;;;;12.60;8.90;;;10.40;99.90;;;;;;4975757;28;20502;-81
2022/12/23 12:05:28;;;;;;;13.75;7.85;;;10.40;99.90;;;;;;4970790;28;20783;-81
2022/12/23 12:07:59;;;;;;;15.13;9.15;;;10.40;99.90;;;;;;5001564;28;20034;-81
2022/12/23 12:10:26;;;;;;;18.05;9.85;;;10.50;99.90;;;;;;5004920;28;20034;-82
2022/12/23 12:13:00;;;;;;;14.02;8.40;;;10.50;99.90;;;;;;4999804;28;20088;-82
2022/12/23 12:15:32;;;;;;;13.52;8.10;;;10.50;99.90;;;;;;4987671;28;20445;-82
2022/12/23 12:17:58;;;;;;;14.75;7.63;;;10.50;99.90;;;;;;4657927;28;10000123;-80
2022/12/23 12:20:28;;;;;;;9.93;6.32;;;10.50;99.90;;;;;;4631469;28;9999920;-81
2022/12/23 12:23:00;;;;;;;8.98;6.90;;;10.60;99.90;;;;;;4979818;28;20042;-81
2022/12/23 12:25:46;;;;;;;10.07;7.38;;;10.50;99.90;;;;;;4976439;28;20053;-80
2022/12/23 12:28:23;;;;;;;9.68;6.90;;;10.50;99.90;;;;;;4979945;28;20113;-81
2022/12/23 12:30:56;;;;;;;14.38;7.57;;;10.50;99.90;;;;;;4982506;28;20045;-80
2022/12/23 12:33:47;;;;;;;10.73;7.55;;;10.50;99.90;;;;;;4988840;28;20045;-81
2022/12/23 12:36:17;;;;;;;12.23;6.55;;;10.40;99.90;;;;;;4983050;28;20065;-81
2022/12/23 12:38:44;;;;;;;11.25;6.72;;;10.50;99.90;;;;;;4998797;28;20119;-81
2022/12/23 12:41:13;;;;;;;12.57;6.38;;;10.40;99.90;;;;;;4987588;28;20445;-83
2022/12/23 12:44:20;;;;;;;6.20;5.32;;;10.40;99.90;;;;;;5007208;28;20472;-81
2022/12/23 12:47:02;;;;;;;6.57;4.95;;;10.30;99.90;;;;;;5004039;28;20459;-81
2022/12/23 12:49:49;;;;;;;6.25;4.00;;;10.30;99.90;;;;;;4972231;28;20569;-80
2022/12/23 12:52:24;;;;;;;7.78;5.47;;;10.30;99.90;;;;;;4988171;28;20113;-81
2022/12/23 12:55:01;;;;;;;9.45;5.40;;;10.30;99.90;;;;;;4997153;28;20479;-81
2022/12/23 12:57:34;;;;;;;9.13;5.10;;;10.30;99.90;;;;;;4973653;28;20113;-81
2022/12/23 12:59:59;;;;;;;8.07;4.65;;;10.30;99.90;;;;;;4972720;28;20030;-81
2022/12/23 13:02:46;;;;;;;7.40;4.97;;;10.30;99.90;;;;;;4999893;28;20096;-80
2022/12/23 13:05:25;;;;;;;12.80;5.13;;;10.20;99.90;;;;;;5006163;28;20038;-80
2022/12/23 13:08:09;;;;;;;12.07;4.72;;;10.20;99.90;;;;;;4970330;28;20106;-80
2022/12/23 13:10:42;;;;;;;5.97;5.22;;;10.20;99.90;;;;;;5000903;28;20038;-80
2022/12/23 13:13:35;;;;;;;8.18;5.00;;;10.10;99.90;;;;;;4990351;28;20065;-80
2022/12/23 13:16:06;;;;;;;6.20;4.07;;;10.20;99.90;;;;;;5004409;28;20506;-80
2022/12/23 13:18:43;;;;;;;9.93;3.85;;;10.10;99.90;;;;;;4998487;28;20414;-81
2022/12/23 13:21:27;;;;;;;6.20;3.70;;;10.10;99.90;;;;;;5005366;28;20038;-81
2022/12/23 13:24:02;;;;;;;5.28;3.55;;;10.10;99.90;;;;;;4989722;28;20056;-81
2022/12/23 13:26:39;;;;;;;9.88;3.70;;;10.00;99.90;;;;;;4989788;28;20058;-81